sensor_id;sensor_type;location;lat;lon;timestamp;P1;durP1;ratioP1;P2;durP2;ratioP2
33987;SDS011;37428;53.580;-1.666;2023-04-24T00:00:41;6.40;;;1.58;;
33987;SDS011;37428;53.580;-1.666;2023-04-24T00:03:46;4.55;;;1.52;;
33987;SDS011;37428;53.580;-1.666;2023-04-24T00:06:49;7.05;;;1.50;;
33987;SDS011;37428;53.580;-1.666;2023-04-24T00:09:54;5.47;;;1.55;;
33987;SDS011;37428;53.580;-1.666;2023-04-24T00:12:56;9.02;;;1.98;;
33987;SDS011;37428;53.580;-1.666;2023-04-24T00:15:58;3.97;;;1.20;;
33987;SDS011;37428;53.580;-1.666;2023-04-24T00:19:02;5.88;;;1.58;;
33987;SDS011;37428;53.580;-1.666;2023-04-24T00:22:05;7.70;;;1.90;;
33987;SDS011;37428;53.580;-1.666;2023-04-24T00:25:08;8.02;;;1.83;;
33987;SDS011;37428;53.580;-1.666;2023-04-24T00:31:12;8.95;;;1.55;;
33987;SDS011;37428;53.580;-1.666;2023-04-24T00:34:16;11.57;;;1.48;;
33987;SDS011;37428;53.580;-1.666;2023-04-24T00:37:18;3.15;;;1.30;;
33987;SDS011;37428;53.580;-1.666;2023-04-24T00:40:20;6.32;;;1.65;;
33987;SDS011;37428;53.580;-1.666;2023-04-24T00:43:22;5.95;;;1.75;;
33987;SDS011;37428;53.580;-1.666;2023-04-24T00:46:25;4.05;;;1.00;;
33987;SDS011;37428;53.580;-1.666;2023-04-24T00:49:28;6.40;;;1.35;;
33987;SDS011;37428;53.580;-1.666;2023-04-24T00:52:31;7.15;;;1.60;;
33987;SDS011;37428;53.580;-1.666;2023-04-24T00:55:33;3.95;;;1.35;;
33987;SDS011;37428;53.580;-1.666;2023-04-24T00:58:37;5.32;;;1.27;;
33987;SDS011;37428;53.580;-1.666;2023-04-24T01:01:41;5.43;;;1.50;;
33987;SDS011;37428;53.580;-1.666;2023-04-24T01:04:45;5.53;;;1.60;;
33987;SDS011;37428;53.580;-1.666;2023-04-24T01:07:47;6.82;;;1.50;;
33987;SDS011;37428;53.580;-1.666;2023-04-24T01:10:50;2.78;;;1.00;;
33987;SDS011;37428;53.580;-1.666;2023-04-24T01:13:53;6.43;;;2.70;;
33987;SDS011;37428;53.580;-1.666;2023-04-24T01:16:55;5.25;;;1.55;;
33987;SDS011;37428;53.580;-1.666;2023-04-24T01:19:59;6.00;;;1.75;;
33987;SDS011;37428;53.580;-1.666;2023-04-24T01:23:07;4.70;;;1.02;;
33987;SDS011;37428;53.580;-1.666;2023-04-24T01:26:10;7.45;;;1.45;;
33987;SDS011;37428;53.580;-1.666;2023-04-24T01:29:12;9.00;;;1.58;;
33987;SDS011;37428;53.580;-1.666;2023-04-24T01:32:14;8.00;;;1.67;;
33987;SDS011;37428;53.580;-1.666;2023-04-24T01:35:17;4.10;;;1.25;;
33987;SDS011;37428;53.580;-1.666;2023-04-24T01:38:21;7.88;;;2.45;;
33987;SDS011;37428;53.580;-1.666;2023-04-24T01:41:23;2.03;;;1.80;;
33987;SDS011;37428;53.580;-1.666;2023-04-24T01:44:26;6.53;;;1.40;;
33987;SDS011;37428;53.580;-1.666;2023-04-24T01:47:29;7.93;;;1.65;;
33987;SDS011;37428;53.580;-1.666;2023-04-24T01:50:32;5.03;;;1.42;;
33987;SDS011;37428;53.580;-1.666;2023-04-24T01:53:35;5.32;;;1.58;;
33987;SDS011;37428;53.580;-1.666;2023-04-24T01:56:38;5.43;;;1.65;;
33987;SDS011;37428;53.580;-1.666;2023-04-24T01:59:42;1.65;;;1.00;;
33987;SDS011;37428;53.580;-1.666;2023-04-24T02:02:44;9.13;;;1.48;;
33987;SDS011;37428;53.580;-1.666;2023-04-24T02:05:47;3.30;;;1.05;;
33987;SDS011;37428;53.580;-1.666;2023-04-24T02:08:50;5.43;;;1.13;;
33987;SDS011;37428;53.580;-1.666;2023-04-24T02:11:52;5.35;;;1.38;;
33987;SDS011;37428;53.580;-1.666;2023-04-24T02:14:54;6.70;;;1.25;;
33987;SDS011;37428;53.580;-1.666;2023-04-24T02:17:56;6.55;;;1.27;;
33987;SDS011;37428;53.580;-1.666;2023-04-24T02:20:58;3.35;;;1.02;;
33987;SDS011;37428;53.580;-1.666;2023-04-24T02:24:02;6.72;;;1.10;;
33987;SDS011;37428;53.580;-1.666;2023-04-24T02:27:04;7.00;;;1.50;;
33987;SDS011;37428;53.580;-1.666;2023-04-24T02:30:07;3.60;;;1.63;;
33987;SDS011;37428;53.580;-1.666;2023-04-24T02:33:09;2.65;;;1.13;;
33987;SDS011;37428;53.580;-1.666;2023-04-24T02:36:12;5.32;;;1.63;;
33987;SDS011;37428;53.580;-1.666;2023-04-24T02:39:16;2.67;;;1.50;;
33987;SDS011;37428;53.580;-1.666;2023-04-24T02:42:18;6.60;;;1.88;;
33987;SDS011;37428;53.580;-1.666;2023-04-24T02:45:20;9.00;;;2.13;;
33987;SDS011;37428;53.580;-1.666;2023-04-24T02:48:23;4.68;;;1.83;;
33987;SDS011;37428;53.580;-1.666;2023-04-24T02:51:25;5.88;;;1.33;;
33987;SDS011;37428;53.580;-1.666;2023-04-24T02:54:29;8.40;;;1.05;;
33987;SDS011;37428;53.580;-1.666;2023-04-24T02:57:31;6.85;;;1.60;;
33987;SDS011;37428;53.580;-1.666;2023-04-24T03:00:33;8.68;;;1.67;;
33987;SDS011;37428;53.580;-1.666;2023-04-24T03:03:35;5.32;;;1.27;;
33987;SDS011;37428;53.580;-1.666;2023-04-24T03:06:37;6.20;;;1.30;;
33987;SDS011;37428;53.580;-1.666;2023-04-24T03:09:41;6.50;;;1.33;;
33987;SDS011;37428;53.580;-1.666;2023-04-24T03:12:43;3.03;;;1.15;;
33987;SDS011;37428;53.580;-1.666;2023-04-24T03:15:45;5.45;;;1.27;;
33987;SDS011;37428;53.580;-1.666;2023-04-24T03:18:47;5.93;;;1.20;;
33987;SDS011;37428;53.580;-1.666;2023-04-24T03:21:49;6.28;;;1.67;;
33987;SDS011;37428;53.580;-1.666;2023-04-24T03:24:53;6.72;;;1.45;;
33987;SDS011;37428;53.580;-1.666;2023-04-24T03:27:56;5.45;;;1.50;;
33987;SDS011;37428;53.580;-1.666;2023-04-24T03:30:58;7.20;;;1.52;;
33987;SDS011;37428;53.580;-1.666;2023-04-24T03:34:01;4.47;;;1.58;;
33987;SDS011;37428;53.580;-1.666;2023-04-24T03:37:03;5.25;;;1.95;;
33987;SDS011;37428;53.580;-1.666;2023-04-24T03:40:07;5.90;;;1.10;;
33987;SDS011;37428;53.580;-1.666;2023-04-24T03:43:10;6.40;;;1.63;;
33987;SDS011;37428;53.580;-1.666;2023-04-24T03:46:12;4.75;;;1.85;;
33987;SDS011;37428;53.580;-1.666;2023-04-24T03:49:15;6.88;;;1.55;;
33987;SDS011;37428;53.580;-1.666;2023-04-24T03:52:17;7.70;;;1.75;;
33987;SDS011;37428;53.580;-1.666;2023-04-24T03:55:20;5.50;;;1.20;;
33987;SDS011;37428;53.580;-1.666;2023-04-24T03:58:23;5.38;;;1.20;;
33987;SDS011;37428;53.580;-1.666;2023-04-24T04:01:25;4.53;;;1.02;;
33987;SDS011;37428;53.580;-1.666;2023-04-24T04:04:28;6.68;;;1.75;;
33987;SDS011;37428;53.580;-1.666;2023-04-24T04:07:30;7.13;;;1.60;;
33987;SDS011;37428;53.580;-1.666;2023-04-24T04:10:34;5.65;;;1.42;;
33987;SDS011;37428;53.580;-1.666;2023-04-24T04:13:36;5.72;;;1.85;;
33987;SDS011;37428;53.580;-1.666;2023-04-24T04:16:38;4.20;;;1.27;;
33987;SDS011;37428;53.580;-1.666;2023-04-24T04:19:40;6.43;;;1.80;;
33987;SDS011;37428;53.580;-1.666;2023-04-24T04:22:42;6.18;;;1.30;;
33987;SDS011;37428;53.580;-1.666;2023-04-24T04:25:45;4.13;;;1.27;;
33987;SDS011;37428;53.580;-1.666;2023-04-24T04:28:48;3.65;;;1.20;;
33987;SDS011;37428;53.580;-1.666;2023-04-24T04:31:50;4.95;;;1.17;;
33987;SDS011;37428;53.580;-1.666;2023-04-24T04:34:52;5.43;;;1.63;;
33987;SDS011;37428;53.580;-1.666;2023-04-24T04:37:54;6.18;;;1.35;;
33987;SDS011;37428;53.580;-1.666;2023-04-24T04:41:00;3.78;;;1.10;;
33987;SDS011;37428;53.580;-1.666;2023-04-24T04:44:03;2.63;;;0.90;;
33987;SDS011;37428;53.580;-1.666;2023-04-24T04:47:05;6.57;;;1.25;;
33987;SDS011;37428;53.580;-1.666;2023-04-24T04:50:09;3.75;;;1.65;;
33987;SDS011;37428;53.580;-1.666;2023-04-24T04:53:11;3.95;;;1.33;;
33987;SDS011;37428;53.580;-1.666;2023-04-24T04:56:15;6.47;;;1.27;;
33987;SDS011;37428;53.580;-1.666;2023-04-24T04:59:17;10.95;;;2.22;;
33987;SDS011;37428;53.580;-1.666;2023-04-24T05:02:20;6.82;;;1.65;;
33987;SDS011;37428;53.580;-1.666;2023-04-24T05:05:22;10.57;;;1.98;;
33987;SDS011;37428;53.580;-1.666;2023-04-24T05:08:24;6.18;;;1.55;;
33987;SDS011;37428;53.580;-1.666;2023-04-24T05:11:27;9.57;;;1.55;;
33987;SDS011;37428;53.580;-1.666;2023-04-24T05:14:30;6.82;;;1.52;;
33987;SDS011;37428;53.580;-1.666;2023-04-24T05:17:32;6.50;;;1.45;;
33987;SDS011;37428;53.580;-1.666;2023-04-24T05:20:34;9.95;;;2.15;;
33987;SDS011;37428;53.580;-1.666;2023-04-24T05:23:36;7.30;;;1.60;;
33987;SDS011;37428;53.580;-1.666;2023-04-24T05:26:40;4.28;;;1.40;;
33987;SDS011;37428;53.580;-1.666;2023-04-24T05:29:42;5.07;;;1.17;;
33987;SDS011;37428;53.580;-1.666;2023-04-24T05:32:45;5.45;;;1.42;;
33987;SDS011;37428;53.580;-1.666;2023-04-24T05:35:47;7.55;;;1.80;;
33987;SDS011;37428;53.580;-1.666;2023-04-24T05:38:49;6.45;;;1.65;;
33987;SDS011;37428;53.580;-1.666;2023-04-24T05:41:53;6.07;;;1.27;;
33987;SDS011;37428;53.580;-1.666;2023-04-24T05:44:55;8.02;;;1.65;;
33987;SDS011;37428;53.580;-1.666;2023-04-24T05:47:57;6.95;;;1.73;;
33987;SDS011;37428;53.580;-1.666;2023-04-24T05:50:59;6.97;;;1.90;;
33987;SDS011;37428;53.580;-1.666;2023-04-24T05:54:01;8.15;;;2.25;;
33987;SDS011;37428;53.580;-1.666;2023-04-24T05:57:05;7.97;;;1.80;;
33987;SDS011;37428;53.580;-1.666;2023-04-24T06:00:09;7.63;;;2.00;;
33987;SDS011;37428;53.580;-1.666;2023-04-24T06:03:12;7.00;;;2.22;;
33987;SDS011;37428;53.580;-1.666;2023-04-24T06:06:14;7.97;;;1.88;;
33987;SDS011;37428;53.580;-1.666;2023-04-24T06:09:16;11.88;;;2.08;;
33987;SDS011;37428;53.580;-1.666;2023-04-24T06:12:20;10.73;;;2.45;;
33987;SDS011;37428;53.580;-1.666;2023-04-24T06:15:22;10.20;;;3.15;;
33987;SDS011;37428;53.580;-1.666;2023-04-24T06:18:24;8.68;;;2.58;;
33987;SDS011;37428;53.580;-1.666;2023-04-24T06:21:26;15.50;;;3.45;;
33987;SDS011;37428;53.580;-1.666;2023-04-24T06:24:29;16.80;;;2.75;;
33987;SDS011;37428;53.580;-1.666;2023-04-24T06:27:32;8.70;;;2.60;;
33987;SDS011;37428;53.580;-1.666;2023-04-24T06:30:35;10.20;;;2.75;;
33987;SDS011;37428;53.580;-1.666;2023-04-24T06:33:37;13.77;;;2.47;;
33987;SDS011;37428;53.580;-1.666;2023-04-24T06:36:39;13.95;;;2.50;;
33987;SDS011;37428;53.580;-1.666;2023-04-24T06:39:41;17.63;;;2.92;;
33987;SDS011;37428;53.580;-1.666;2023-04-24T06:42:45;16.05;;;2.70;;
33987;SDS011;37428;53.580;-1.666;2023-04-24T06:45:47;9.18;;;3.53;;
33987;SDS011;37428;53.580;-1.666;2023-04-24T06:48:49;20.38;;;2.80;;
33987;SDS011;37428;53.580;-1.666;2023-04-24T06:51:52;10.63;;;2.83;;
33987;SDS011;37428;53.580;-1.666;2023-04-24T06:54:59;11.63;;;2.72;;
33987;SDS011;37428;53.580;-1.666;2023-04-24T06:58:03;29.83;;;4.10;;
33987;SDS011;37428;53.580;-1.666;2023-04-24T07:01:06;8.98;;;2.47;;
33987;SDS011;37428;53.580;-1.666;2023-04-24T07:04:08;9.63;;;2.30;;
33987;SDS011;37428;53.580;-1.666;2023-04-24T07:07:11;13.63;;;3.30;;
33987;SDS011;37428;53.580;-1.666;2023-04-24T07:10:14;10.90;;;2.25;;
33987;SDS011;37428;53.580;-1.666;2023-04-24T07:13:17;13.00;;;3.60;;
33987;SDS011;37428;53.580;-1.666;2023-04-24T07:16:20;12.20;;;2.42;;
33987;SDS011;37428;53.580;-1.666;2023-04-24T07:19:22;12.23;;;2.78;;
33987;SDS011;37428;53.580;-1.666;2023-04-24T07:22:24;11.45;;;2.72;;
33987;SDS011;37428;53.580;-1.666;2023-04-24T07:25:26;14.55;;;3.20;;
33987;SDS011;37428;53.580;-1.666;2023-04-24T07:28:30;11.88;;;2.67;;
33987;SDS011;37428;53.580;-1.666;2023-04-24T07:31:32;8.13;;;2.58;;
33987;SDS011;37428;53.580;-1.666;2023-04-24T07:34:34;10.77;;;2.53;;
33987;SDS011;37428;53.580;-1.666;2023-04-24T07:37:37;10.70;;;2.95;;
33987;SDS011;37428;53.580;-1.666;2023-04-24T07:40:39;9.55;;;2.50;;
33987;SDS011;37428;53.580;-1.666;2023-04-24T07:43:42;10.60;;;2.40;;
33987;SDS011;37428;53.580;-1.666;2023-04-24T07:46:45;15.50;;;3.70;;
33987;SDS011;37428;53.580;-1.666;2023-04-24T07:49:48;14.05;;;2.67;;
33987;SDS011;37428;53.580;-1.666;2023-04-24T07:52:50;7.80;;;2.58;;
33987;SDS011;37428;53.580;-1.666;2023-04-24T07:55:53;17.88;;;3.42;;
33987;SDS011;37428;53.580;-1.666;2023-04-24T07:58:57;12.43;;;3.10;;
33987;SDS011;37428;53.580;-1.666;2023-04-24T08:02:00;13.35;;;3.28;;
33987;SDS011;37428;53.580;-1.666;2023-04-24T08:05:02;12.15;;;2.75;;
33987;SDS011;37428;53.580;-1.666;2023-04-24T08:08:05;12.40;;;3.65;;
33987;SDS011;37428;53.580;-1.666;2023-04-24T08:11:07;12.02;;;2.63;;
33987;SDS011;37428;53.580;-1.666;2023-04-24T08:14:10;9.65;;;2.85;;
33987;SDS011;37428;53.580;-1.666;2023-04-24T08:17:13;12.13;;;2.70;;
33987;SDS011;37428;53.580;-1.666;2023-04-24T08:20:15;10.25;;;2.63;;
33987;SDS011;37428;53.580;-1.666;2023-04-24T08:23:17;12.43;;;3.35;;
33987;SDS011;37428;53.580;-1.666;2023-04-24T08:26:19;9.88;;;2.90;;
33987;SDS011;37428;53.580;-1.666;2023-04-24T08:29:23;13.50;;;3.75;;
33987;SDS011;37428;53.580;-1.666;2023-04-24T08:32:26;10.70;;;2.53;;
33987;SDS011;37428;53.580;-1.666;2023-04-24T08:35:29;11.45;;;3.40;;
33987;SDS011;37428;53.580;-1.666;2023-04-24T08:38:31;10.20;;;3.13;;
33987;SDS011;37428;53.580;-1.666;2023-04-24T08:44:37;13.37;;;3.03;;
33987;SDS011;37428;53.580;-1.666;2023-04-24T08:47:39;18.85;;;3.47;;
33987;SDS011;37428;53.580;-1.666;2023-04-24T08:50:44;9.40;;;2.88;;
33987;SDS011;37428;53.580;-1.666;2023-04-24T08:53:46;11.52;;;2.83;;
33987;SDS011;37428;53.580;-1.666;2023-04-24T08:56:48;13.65;;;3.38;;
33987;SDS011;37428;53.580;-1.666;2023-04-24T08:59:53;13.82;;;2.95;;
33987;SDS011;37428;53.580;-1.666;2023-04-24T09:02:55;13.68;;;2.72;;
33987;SDS011;37428;53.580;-1.666;2023-04-24T09:05:58;16.63;;;3.53;;
33987;SDS011;37428;53.580;-1.666;2023-04-24T09:15:08;15.52;;;3.50;;
33987;SDS011;37428;53.580;-1.666;2023-04-24T09:18:11;17.95;;;3.20;;
33987;SDS011;37428;53.580;-1.666;2023-04-24T09:21:13;18.70;;;3.45;;
33987;SDS011;37428;53.580;-1.666;2023-04-24T09:24:17;11.70;;;2.53;;
33987;SDS011;37428;53.580;-1.666;2023-04-24T09:27:22;14.68;;;3.28;;
33987;SDS011;37428;53.580;-1.666;2023-04-24T09:30:26;9.15;;;3.05;;
33987;SDS011;37428;53.580;-1.666;2023-04-24T09:33:29;9.65;;;2.67;;
33987;SDS011;37428;53.580;-1.666;2023-04-24T09:36:31;14.63;;;2.80;;
33987;SDS011;37428;53.580;-1.666;2023-04-24T09:39:37;7.13;;;2.35;;
33987;SDS011;37428;53.580;-1.666;2023-04-24T09:42:39;8.10;;;3.00;;
33987;SDS011;37428;53.580;-1.666;2023-04-24T09:45:43;8.63;;;2.70;;
33987;SDS011;37428;53.580;-1.666;2023-04-24T09:48:45;6.40;;;2.22;;
33987;SDS011;37428;53.580;-1.666;2023-04-24T09:51:47;8.10;;;2.42;;
33987;SDS011;37428;53.580;-1.666;2023-04-24T09:54:52;7.55;;;2.08;;
33987;SDS011;37428;53.580;-1.666;2023-04-24T09:57:55;11.18;;;2.80;;
33987;SDS011;37428;53.580;-1.666;2023-04-24T10:01:01;6.13;;;2.00;;
33987;SDS011;37428;53.580;-1.666;2023-04-24T10:04:04;7.03;;;2.13;;
33987;SDS011;37428;53.580;-1.666;2023-04-24T10:07:06;12.85;;;2.50;;
33987;SDS011;37428;53.580;-1.666;2023-04-24T10:10:10;7.22;;;2.30;;
33987;SDS011;37428;53.580;-1.666;2023-04-24T10:13:14;12.73;;;3.03;;
33987;SDS011;37428;53.580;-1.666;2023-04-24T10:16:17;9.15;;;2.17;;
33987;SDS011;37428;53.580;-1.666;2023-04-24T10:19:21;8.57;;;2.13;;
33987;SDS011;37428;53.580;-1.666;2023-04-24T10:22:26;7.22;;;2.58;;
33987;SDS011;37428;53.580;-1.666;2023-04-24T10:25:31;15.30;;;2.53;;
33987;SDS011;37428;53.580;-1.666;2023-04-24T10:28:34;11.45;;;2.47;;
33987;SDS011;37428;53.580;-1.666;2023-04-24T10:31:39;10.80;;;2.67;;
33987;SDS011;37428;53.580;-1.666;2023-04-24T10:34:41;10.70;;;2.50;;
33987;SDS011;37428;53.580;-1.666;2023-04-24T10:37:44;5.80;;;2.47;;
33987;SDS011;37428;53.580;-1.666;2023-04-24T10:40:49;13.00;;;2.90;;
33987;SDS011;37428;53.580;-1.666;2023-04-24T10:44:03;8.10;;;2.58;;
33987;SDS011;37428;53.580;-1.666;2023-04-24T10:47:08;9.88;;;2.55;;
33987;SDS011;37428;53.580;-1.666;2023-04-24T10:50:15;6.70;;;2.63;;
33987;SDS011;37428;53.580;-1.666;2023-04-24T10:53:18;10.40;;;2.47;;
33987;SDS011;37428;53.580;-1.666;2023-04-24T10:56:23;8.52;;;2.50;;
33987;SDS011;37428;53.580;-1.666;2023-04-24T10:59:25;10.15;;;2.17;;
33987;SDS011;37428;53.580;-1.666;2023-04-24T11:02:36;12.02;;;3.28;;
33987;SDS011;37428;53.580;-1.666;2023-04-24T11:05:50;9.20;;;3.63;;
33987;SDS011;37428;53.580;-1.666;2023-04-24T11:08:58;8.23;;;2.35;;
33987;SDS011;37428;53.580;-1.666;2023-04-24T11:12:06;10.57;;;2.40;;
33987;SDS011;37428;53.580;-1.666;2023-04-24T11:15:10;6.63;;;2.05;;
33987;SDS011;37428;53.580;-1.666;2023-04-24T11:18:15;4.40;;;1.70;;
33987;SDS011;37428;53.580;-1.666;2023-04-24T11:21:17;9.90;;;2.15;;
33987;SDS011;37428;53.580;-1.666;2023-04-24T11:24:23;9.60;;;2.45;;
33987;SDS011;37428;53.580;-1.666;2023-04-24T11:27:26;7.47;;;2.13;;
33987;SDS011;37428;53.580;-1.666;2023-04-24T11:30:32;8.57;;;2.95;;
33987;SDS011;37428;53.580;-1.666;2023-04-24T11:33:36;12.57;;;2.35;;
33987;SDS011;37428;53.580;-1.666;2023-04-24T11:36:39;8.35;;;2.53;;
33987;SDS011;37428;53.580;-1.666;2023-04-24T11:39:41;7.47;;;2.17;;
33987;SDS011;37428;53.580;-1.666;2023-04-24T11:42:44;7.20;;;2.00;;
33987;SDS011;37428;53.580;-1.666;2023-04-24T11:45:48;8.80;;;2.35;;
33987;SDS011;37428;53.580;-1.666;2023-04-24T11:48:52;8.80;;;2.53;;
33987;SDS011;37428;53.580;-1.666;2023-04-24T11:51:54;5.45;;;1.60;;
33987;SDS011;37428;53.580;-1.666;2023-04-24T11:54:57;5.72;;;1.75;;
33987;SDS011;37428;53.580;-1.666;2023-04-24T11:57:59;8.85;;;2.13;;
33987;SDS011;37428;53.580;-1.666;2023-04-24T12:01:01;12.70;;;2.60;;
33987;SDS011;37428;53.580;-1.666;2023-04-24T12:04:06;8.13;;;3.08;;
33987;SDS011;37428;53.580;-1.666;2023-04-24T12:07:08;6.65;;;2.00;;
33987;SDS011;37428;53.580;-1.666;2023-04-24T12:10:10;5.75;;;2.30;;
33987;SDS011;37428;53.580;-1.666;2023-04-24T12:13:12;8.02;;;2.45;;
33987;SDS011;37428;53.580;-1.666;2023-04-24T12:16:14;13.00;;;2.60;;
33987;SDS011;37428;53.580;-1.666;2023-04-24T12:19:20;6.72;;;1.70;;
33987;SDS011;37428;53.580;-1.666;2023-04-24T12:22:23;4.35;;;1.60;;
33987;SDS011;37428;53.580;-1.666;2023-04-24T12:25:26;8.85;;;2.08;;
33987;SDS011;37428;53.580;-1.666;2023-04-24T12:28:34;5.30;;;1.55;;
33987;SDS011;37428;53.580;-1.666;2023-04-24T12:31:37;7.50;;;1.60;;
33987;SDS011;37428;53.580;-1.666;2023-04-24T12:34:40;8.05;;;1.85;;
33987;SDS011;37428;53.580;-1.666;2023-04-24T12:37:47;6.72;;;1.70;;
33987;SDS011;37428;53.580;-1.666;2023-04-24T12:41:00;7.38;;;2.22;;
33987;SDS011;37428;53.580;-1.666;2023-04-24T12:44:10;7.55;;;1.83;;
33987;SDS011;37428;53.580;-1.666;2023-04-24T12:47:13;4.93;;;1.75;;
33987;SDS011;37428;53.580;-1.666;2023-04-24T12:50:16;10.05;;;2.00;;
33987;SDS011;37428;53.580;-1.666;2023-04-24T12:53:18;5.68;;;1.90;;
33987;SDS011;37428;53.580;-1.666;2023-04-24T12:56:20;6.95;;;1.63;;
33987;SDS011;37428;53.580;-1.666;2023-04-24T12:59:23;9.15;;;2.20;;
33987;SDS011;37428;53.580;-1.666;2023-04-24T13:02:26;4.38;;;2.15;;
33987;SDS011;37428;53.580;-1.666;2023-04-24T13:05:31;8.38;;;1.88;;
33987;SDS011;37428;53.580;-1.666;2023-04-24T13:08:33;12.40;;;3.05;;
33987;SDS011;37428;53.580;-1.666;2023-04-24T13:11:36;6.38;;;1.98;;
33987;SDS011;37428;53.580;-1.666;2023-04-24T13:14:38;8.20;;;2.40;;
33987;SDS011;37428;53.580;-1.666;2023-04-24T13:17:40;9.60;;;2.10;;
33987;SDS011;37428;53.580;-1.666;2023-04-24T13:20:43;12.48;;;1.85;;
33987;SDS011;37428;53.580;-1.666;2023-04-24T13:23:47;9.32;;;2.60;;
33987;SDS011;37428;53.580;-1.666;2023-04-24T13:26:49;7.35;;;1.88;;
33987;SDS011;37428;53.580;-1.666;2023-04-24T13:29:51;4.88;;;1.70;;
33987;SDS011;37428;53.580;-1.666;2023-04-24T13:32:53;7.88;;;2.30;;
33987;SDS011;37428;53.580;-1.666;2023-04-24T13:35:57;13.10;;;2.58;;
33987;SDS011;37428;53.580;-1.666;2023-04-24T13:38:59;10.02;;;2.88;;
33987;SDS011;37428;53.580;-1.666;2023-04-24T13:42:02;12.55;;;2.63;;
33987;SDS011;37428;53.580;-1.666;2023-04-24T13:45:04;13.80;;;3.00;;
33987;SDS011;37428;53.580;-1.666;2023-04-24T13:48:07;7.18;;;2.33;;
33987;SDS011;37428;53.580;-1.666;2023-04-24T13:51:11;12.30;;;2.42;;
33987;SDS011;37428;53.580;-1.666;2023-04-24T13:54:13;13.73;;;2.85;;
33987;SDS011;37428;53.580;-1.666;2023-04-24T13:57:16;7.90;;;1.80;;
33987;SDS011;37428;53.580;-1.666;2023-04-24T14:00:18;6.57;;;2.25;;
33987;SDS011;37428;53.580;-1.666;2023-04-24T14:03:21;6.55;;;2.70;;
33987;SDS011;37428;53.580;-1.666;2023-04-24T14:06:24;8.73;;;2.10;;
33987;SDS011;37428;53.580;-1.666;2023-04-24T14:09:26;7.80;;;2.08;;
33987;SDS011;37428;53.580;-1.666;2023-04-24T14:12:29;7.03;;;1.67;;
33987;SDS011;37428;53.580;-1.666;2023-04-24T14:15:31;7.90;;;2.05;;
33987;SDS011;37428;53.580;-1.666;2023-04-24T14:18:33;16.33;;;3.10;;
33987;SDS011;37428;53.580;-1.666;2023-04-24T14:21:37;25.05;;;2.60;;
33987;SDS011;37428;53.580;-1.666;2023-04-24T14:24:40;6.68;;;2.08;;
33987;SDS011;37428;53.580;-1.666;2023-04-24T14:27:42;9.70;;;2.40;;
33987;SDS011;37428;53.580;-1.666;2023-04-24T14:30:44;6.30;;;2.33;;
33987;SDS011;37428;53.580;-1.666;2023-04-24T14:33:46;8.38;;;2.67;;
33987;SDS011;37428;53.580;-1.666;2023-04-24T14:36:50;7.88;;;2.60;;
33987;SDS011;37428;53.580;-1.666;2023-04-24T14:39:52;10.38;;;3.13;;
33987;SDS011;37428;53.580;-1.666;2023-04-24T14:42:54;7.95;;;2.30;;
33987;SDS011;37428;53.580;-1.666;2023-04-24T14:45:57;13.50;;;3.30;;
33987;SDS011;37428;53.580;-1.666;2023-04-24T14:48:59;10.70;;;2.33;;
33987;SDS011;37428;53.580;-1.666;2023-04-24T14:52:02;9.65;;;2.38;;
33987;SDS011;37428;53.580;-1.666;2023-04-24T14:55:05;5.82;;;1.95;;
33987;SDS011;37428;53.580;-1.666;2023-04-24T14:58:08;10.77;;;2.47;;
33987;SDS011;37428;53.580;-1.666;2023-04-24T15:01:10;5.60;;;2.13;;
33987;SDS011;37428;53.580;-1.666;2023-04-24T15:04:12;12.73;;;3.20;;
33987;SDS011;37428;53.580;-1.666;2023-04-24T15:07:15;13.85;;;3.03;;
33987;SDS011;37428;53.580;-1.666;2023-04-24T15:10:17;12.20;;;2.83;;
33987;SDS011;37428;53.580;-1.666;2023-04-24T15:13:22;9.90;;;2.72;;
33987;SDS011;37428;53.580;-1.666;2023-04-24T15:16:24;8.88;;;2.35;;
33987;SDS011;37428;53.580;-1.666;2023-04-24T15:19:27;15.48;;;3.45;;
33987;SDS011;37428;53.580;-1.666;2023-04-24T15:22:30;14.45;;;2.80;;
33987;SDS011;37428;53.580;-1.666;2023-04-24T15:25:33;10.90;;;2.97;;
33987;SDS011;37428;53.580;-1.666;2023-04-24T15:28:35;9.15;;;2.15;;
33987;SDS011;37428;53.580;-1.666;2023-04-24T15:31:37;11.90;;;2.58;;
33987;SDS011;37428;53.580;-1.666;2023-04-24T15:34:40;15.20;;;2.47;;
33987;SDS011;37428;53.580;-1.666;2023-04-24T15:37:43;11.00;;;3.03;;
33987;SDS011;37428;53.580;-1.666;2023-04-24T15:40:45;11.57;;;2.45;;
33987;SDS011;37428;53.580;-1.666;2023-04-24T15:43:48;17.60;;;2.13;;
33987;SDS011;37428;53.580;-1.666;2023-04-24T15:46:50;17.98;;;3.50;;
33987;SDS011;37428;53.580;-1.666;2023-04-24T15:49:52;11.77;;;3.10;;
33987;SDS011;37428;53.580;-1.666;2023-04-24T15:52:56;10.18;;;2.63;;
33987;SDS011;37428;53.580;-1.666;2023-04-24T15:55:58;12.90;;;2.63;;
33987;SDS011;37428;53.580;-1.666;2023-04-24T15:59:00;12.45;;;3.45;;
33987;SDS011;37428;53.580;-1.666;2023-04-24T16:02:03;12.57;;;3.08;;
33987;SDS011;37428;53.580;-1.666;2023-04-24T16:05:05;13.05;;;3.28;;
33987;SDS011;37428;53.580;-1.666;2023-04-24T16:11:11;16.30;;;2.60;;
33987;SDS011;37428;53.580;-1.666;2023-04-24T16:14:13;17.63;;;3.47;;
33987;SDS011;37428;53.580;-1.666;2023-04-24T16:17:15;17.60;;;2.85;;
33987;SDS011;37428;53.580;-1.666;2023-04-24T16:20:17;6.93;;;2.15;;
33987;SDS011;37428;53.580;-1.666;2023-04-24T16:23:21;9.98;;;2.55;;
33987;SDS011;37428;53.580;-1.666;2023-04-24T16:26:23;10.55;;;2.38;;
33987;SDS011;37428;53.580;-1.666;2023-04-24T16:29:25;9.00;;;1.98;;
33987;SDS011;37428;53.580;-1.666;2023-04-24T16:32:28;10.35;;;2.30;;
33987;SDS011;37428;53.580;-1.666;2023-04-24T16:35:30;12.55;;;2.20;;
33987;SDS011;37428;53.580;-1.666;2023-04-24T16:38:34;13.00;;;2.58;;
33987;SDS011;37428;53.580;-1.666;2023-04-24T16:41:36;11.70;;;2.28;;
33987;SDS011;37428;53.580;-1.666;2023-04-24T16:44:38;8.15;;;1.92;;
33987;SDS011;37428;53.580;-1.666;2023-04-24T16:47:40;8.10;;;2.53;;
33987;SDS011;37428;53.580;-1.666;2023-04-24T16:50:42;12.30;;;2.50;;
33987;SDS011;37428;53.580;-1.666;2023-04-24T16:53:46;14.60;;;2.90;;
33987;SDS011;37428;53.580;-1.666;2023-04-24T16:56:48;12.85;;;2.45;;
33987;SDS011;37428;53.580;-1.666;2023-04-24T17:02:52;10.65;;;2.28;;
33987;SDS011;37428;53.580;-1.666;2023-04-24T17:05:55;13.07;;;2.85;;
33987;SDS011;37428;53.580;-1.666;2023-04-24T17:08:58;8.77;;;2.22;;
33987;SDS011;37428;53.580;-1.666;2023-04-24T17:12:00;5.47;;;1.60;;
33987;SDS011;37428;53.580;-1.666;2023-04-24T17:15:03;11.25;;;2.92;;
33987;SDS011;37428;53.580;-1.666;2023-04-24T17:18:05;8.85;;;2.33;;
33987;SDS011;37428;53.580;-1.666;2023-04-24T17:21:08;10.45;;;2.67;;
33987;SDS011;37428;53.580;-1.666;2023-04-24T17:24:11;4.53;;;1.95;;
33987;SDS011;37428;53.580;-1.666;2023-04-24T17:27:13;13.40;;;2.47;;
33987;SDS011;37428;53.580;-1.666;2023-04-24T17:30:15;9.07;;;1.88;;
33987;SDS011;37428;53.580;-1.666;2023-04-24T17:33:18;9.68;;;2.20;;
33987;SDS011;37428;53.580;-1.666;2023-04-24T17:36:20;11.02;;;2.05;;
33987;SDS011;37428;53.580;-1.666;2023-04-24T17:39:23;5.78;;;2.10;;
33987;SDS011;37428;53.580;-1.666;2023-04-24T17:42:26;7.38;;;2.30;;
33987;SDS011;37428;53.580;-1.666;2023-04-24T17:45:28;8.73;;;2.58;;
33987;SDS011;37428;53.580;-1.666;2023-04-24T17:48:30;10.88;;;2.40;;
33987;SDS011;37428;53.580;-1.666;2023-04-24T17:51:32;7.90;;;1.60;;
33987;SDS011;37428;53.580;-1.666;2023-04-24T17:54:35;10.77;;;2.50;;
33987;SDS011;37428;53.580;-1.666;2023-04-24T17:57:38;9.13;;;2.50;;
33987;SDS011;37428;53.580;-1.666;2023-04-24T18:00:40;8.73;;;1.95;;
33987;SDS011;37428;53.580;-1.666;2023-04-24T18:03:42;9.73;;;2.58;;
33987;SDS011;37428;53.580;-1.666;2023-04-24T18:06:44;7.80;;;2.00;;
33987;SDS011;37428;53.580;-1.666;2023-04-24T18:09:48;6.75;;;2.45;;
33987;SDS011;37428;53.580;-1.666;2023-04-24T18:12:50;10.25;;;2.58;;
33987;SDS011;37428;53.580;-1.666;2023-04-24T18:15:52;9.85;;;2.25;;
33987;SDS011;37428;53.580;-1.666;2023-04-24T18:18:54;6.88;;;2.05;;